Clear Creek, Ohio
Current Conditions -  °F | °C
As of 10:52 AM on Thursday 23 Oct 2014 (Local Time) from KMFD Reporting Station
Broken Clouds Broken Clouds  
Wind Chill: 43°   Ceiling: 900
Heat Index: 46°   Visibility: 10mi
Dew Point: 41°   Wind: 6mph
Humidity: 83%   Direction: NA
Pressure: 30.24"   Gusts: NA
Location:  40.9675°N, 82.3687°W
Report Text: KMFD 231452Z VRB05KT 10SM BKN009 08/05 A3024 RMK AO2 CIG 007V013 SLP246 T00780050 52009
Loading
Personal Weather Stations






























Interactive Weather Map
Tropical Storm Tracking
New forecast layout! Learn more

10-Day Weather Forecast

Advertisements
Track Severe Weather on mobile